Time;durP1;ratioP1;P1;durP2;ratioP2;P2;SDS_P1;SDS_P2;PMS_P1;PMS_P2;Temp;Humidity;BMP_temperature;BMP_pressure;BME280_temperature;BME280_humidity;BME280_pressure;Samples;Min_cycle;Max_cycle;Signal;HPM_P1;HPM_P2
2023/08/23 05:20:01;;;;;;;;;4.00;4.00;;;;;24.67;54.50;101612.06;5099650;27;45911;-73
2023/08/23 05:22:26;;;;;;;;;4.00;4.00;;;;;24.77;54.68;101608.44;5081797;27;45450;-74
2023/08/23 05:24:51;;;;;;;;;6.00;4.67;;;;;24.92;54.09;101611.44;5088561;27;45565;-73
2023/08/23 05:27:17;;;;;;;;;4.00;4.00;;;;;25.12;53.66;101610.28;5092279;27;49995;-74
2023/08/23 05:29:42;;;;;;;;;3.33;3.33;;;;;25.34;52.80;101610.75;5087812;27;45457;-74
2023/08/23 05:32:07;;;;;;;;;4.67;4.00;;;;;25.57;53.06;101617.53;5085503;27;45499;-75
2023/08/23 05:34:33;;;;;;;;;4.00;4.00;;;;;25.79;52.45;101619.69;5089877;27;45606;-76
2023/08/23 05:36:59;;;;;;;;;5.00;3.33;;;;;26.00;52.49;101612.13;5083844;27;45666;-75
2023/08/23 05:39:24;;;;;;;;;4.00;4.00;;;;;26.22;51.75;101613.41;5086830;27;54662;-74
2023/08/23 05:41:49;;;;;;;;;3.00;2.00;;;;;26.39;51.68;101611.59;5086902;27;46529;-76
2023/08/23 05:44:15;;;;;;;;;3.33;3.33;;;;;26.54;51.17;101624.56;5080268;27;57737;-74
2023/08/23 05:46:40;;;;;;;;;5.33;4.67;;;;;26.67;50.75;101627.63;5083260;27;45693;-75
2023/08/23 05:49:05;;;;;;;;;5.00;4.00;;;;;26.81;50.09;101623.38;5086991;27;49005;-74
2023/08/23 05:51:31;;;;;;;;;3.33;2.00;;;;;26.94;50.35;101622.06;5079051;27;45614;-73
2023/08/23 05:53:56;;;;;;;;;3.00;3.00;;;;;27.03;50.36;101618.31;5073192;27;45416;-75
2023/08/23 05:56:24;;;;;;;;;3.00;3.00;;;;;27.14;49.65;101608.09;5078919;27;49793;-74
2023/08/23 05:58:49;;;;;;;;;3.33;3.00;;;;;27.24;49.31;101608.75;5073983;27;46079;-74
2023/08/23 06:01:15;;;;;;;;;3.67;3.67;;;;;27.31;49.03;101596.16;5077001;27;45419;-74
2023/08/23 06:03:40;;;;;;;;;2.33;2.33;;;;;27.40;48.46;101601.56;5076130;27;46015;-74
2023/08/23 06:06:05;;;;;;;;;3.67;3.67;;;;;27.46;48.32;101604.44;5086759;27;45423;-74
2023/08/23 06:08:31;;;;;;;;;3.00;3.00;;;;;27.52;48.06;101610.22;5081930;27;46035;-74
2023/08/23 06:10:56;;;;;;;;;4.00;4.00;;;;;27.59;48.40;101612.06;5080238;27;51977;-73
2023/08/23 06:13:22;;;;;;;;;4.00;3.33;;;;;27.64;48.44;101608.84;5076135;27;45402;-74
2023/08/23 06:15:47;;;;;;;;;3.67;3.67;;;;;27.68;47.99;101614.81;5080138;27;45421;-74
2023/08/23 06:18:13;;;;;;;;;4.00;4.00;;;;;27.70;48.03;101615.47;5068579;27;45602;-74
2023/08/23 06:20:39;;;;;;;;;3.67;3.67;;;;;27.73;48.20;101607.81;5069136;27;45530;-74
2023/08/23 06:23:04;;;;;;;;;4.00;4.00;;;;;27.74;47.20;101592.25;5069353;27;45555;-74
2023/08/23 06:25:29;;;;;;;;;4.00;4.00;;;;;27.76;47.15;101595.69;5069041;27;45517;-74
2023/08/23 06:27:55;;;;;;;;;4.00;3.00;;;;;27.81;47.32;101603.31;5073919;27;47839;-74
2023/08/23 06:30:21;;;;;;;;;2.67;2.67;;;;;27.79;47.72;101598.03;5060865;27;45415;-75
2023/08/23 06:32:48;;;;;;;;;4.00;4.00;;;;;27.81;47.11;101606.06;5054978;28;45376;-74
2023/08/23 06:35:14;;;;;;;;;4.00;4.00;;;;;27.81;47.41;101606.91;5068101;27;45358;-74
2023/08/23 06:37:40;;;;;;;;;3.67;3.00;;;;;27.80;47.29;101597.03;5069066;28;45474;-75
2023/08/23 06:40:06;;;;;;;;;3.67;3.33;;;;;27.84;47.14;101601.09;5075718;27;45419;-74
2023/08/23 06:42:31;;;;;;;;;5.00;4.00;;;;;27.87;47.53;101608.94;5073798;27;45435;-76
2023/08/23 06:44:57;;;;;;;;;3.33;3.33;;;;;27.93;46.57;101614.69;5064603;27;45572;-75
2023/08/23 06:47:22;;;;;;;;;3.67;3.00;;;;;27.97;46.58;101613.31;5059111;28;51417;-75
2023/08/23 06:49:48;;;;;;;;;5.33;5.00;;;;;28.02;46.66;101605.44;5059494;28;45658;-75
2023/08/23 06:52:13;;;;;;;;;5.33;5.33;;;;;28.07;46.51;101610.38;5073770;27;45624;-75
2023/08/23 06:54:38;;;;;;;;;4.67;4.67;;;;;28.10;46.12;101612.72;5065573;28;45422;-74
2023/08/23 06:57:04;;;;;;;;;3.00;3.00;;;;;28.14;46.78;101625.00;5071486;27;49275;-74
2023/08/23 06:59:29;;;;;;;;;2.33;2.33;;;;;28.14;46.35;101622.28;5059078;27;45475;-76
2023/08/23 07:01:55;;;;;;;;;6.67;4.67;;;;;28.19;46.33;101632.66;5060060;28;45601;-72
2023/08/23 07:04:20;;;;;;;;;3.33;3.33;;;;;28.23;46.81;101628.53;5062824;27;45407;-72
2023/08/23 07:06:45;;;;;;;;;6.00;3.00;;;;;28.27;46.38;101629.91;5054390;28;46126;-72
2023/08/23 07:09:11;;;;;;;;;4.00;4.00;;;;;28.33;46.51;101634.66;5074829;27;45638;-73
2023/08/23 07:11:36;;;;;;;;;3.33;3.00;;;;;28.37;46.94;101632.41;5065521;27;45738;-73
2023/08/23 07:14:01;;;;;;;;;4.33;3.67;;;;;28.40;46.28;101632.91;5063665;28;45363;-73
2023/08/23 07:16:27;;;;;;;;;6.00;6.00;;;;;28.45;46.67;101637.84;5067690;28;50047;-73
2023/08/23 07:18:52;;;;;;;;;4.00;4.00;;;;;28.51;46.70;101642.56;5072252;27;45434;-72
2023/08/23 07:21:17;;;;;;;;;4.33;4.33;;;;;28.55;46.04;101640.31;5066158;27;45622;-73
2023/08/23 07:23:43;;;;;;;;;6.00;4.67;;;;;28.58;45.97;101645.41;5069384;28;45732;-73
2023/08/23 07:26:09;;;;;;;;;4.67;4.00;;;;;28.61;46.02;101647.78;5073131;27;45840;-74
2023/08/23 07:28:35;;;;;;;;;3.33;3.33;;;;;28.65;46.40;101646.38;5067340;27;45749;-74
2023/08/23 07:31:02;;;;;;;;;6.33;5.00;;;;;28.69;45.34;101646.03;5067771;28;45618;-73
2023/08/23 07:33:27;;;;;;;;;5.67;5.33;;;;;28.69;45.08;101646.03;5072380;27;45534;-73
2023/08/23 07:36:00;;;;;;;;;5.00;2.33;;;;;28.71;45.15;101644.81;5059598;27;46132;-73
2023/08/23 07:38:26;;;;;;;;;4.00;4.00;;;;;28.73;44.58;101647.38;5065633;27;45431;-74
2023/08/23 07:40:57;;;;;;;;;3.33;3.33;;;;;28.74;44.55;101647.19;5065821;27;45724;-75
2023/08/23 07:43:22;;;;;;;;;5.00;3.00;;;;;28.75;44.43;101648.88;5061662;28;45457;-72
2023/08/23 07:45:55;;;;;;;;;5.67;5.67;;;;;28.77;44.67;101641.34;5068358;28;46280;-75
2023/08/23 07:48:25;;;;;;;;;4.00;4.00;;;;;28.79;44.62;101632.97;5060638;28;45395;-75
2023/08/23 07:50:52;;;;;;;;;5.00;5.00;;;;;28.81;44.04;101625.44;5063578;28;45449;-74
2023/08/23 07:53:17;;;;;;;;;4.33;4.33;;;;;28.82;44.38;101634.47;5069036;28;45911;-73
2023/08/23 07:55:43;;;;;;;;;4.33;3.67;;;;;28.83;44.61;101636.19;5066987;28;46543;-74
2023/08/23 07:58:09;;;;;;;;;7.67;6.00;;;;;28.83;44.33;101638.91;5072629;28;45431;-72
2023/08/23 08:00:35;;;;;;;;;6.00;6.00;;;;;28.85;43.99;101639.59;5054231;27;47086;-74
2023/08/23 08:03:02;;;;;;;;;3.00;3.00;;;;;28.87;44.52;101642.97;5064146;28;45625;-74
2023/08/23 08:05:27;;;;;;;;;6.33;5.00;;;;;28.87;44.35;101645.72;5063806;28;45685;-74
2023/08/23 08:07:53;;;;;;;;;8.33;3.67;;;;;28.88;44.61;101648.28;5068896;28;45900;-74
2023/08/23 08:10:19;;;;;;;;;4.33;4.33;;;;;28.90;44.55;101654.41;5066058;28;45670;-73
2023/08/23 08:12:45;;;;;;;;;5.33;5.33;;;;;28.95;44.54;101647.56;5053984;27;45584;-73
2023/08/23 08:15:10;;;;;;;;;6.00;6.00;;;;;28.97;44.16;101638.13;5062256;27;45560;-73
2023/08/23 08:17:35;;;;;;;;;6.67;5.67;;;;;29.01;43.95;101642.19;5056911;27;45522;-71
2023/08/23 08:20:05;;;;;;;;;4.67;4.67;;;;;29.05;44.41;101642.69;5066200;28;45975;-71
2023/08/23 08:22:31;;;;;;;;;10.67;5.00;;;;;29.06;44.00;101641.66;5061499;28;45386;-71
2023/08/23 08:24:57;;;;;;;;;5.00;4.00;;;;;29.10;44.35;101640.22;5058198;28;46398;-72
2023/08/23 08:27:23;;;;;;;;;6.00;4.00;;;;;29.15;43.96;101642.44;5082773;27;45638;-72
2023/08/23 08:29:48;;;;;;;;;5.67;4.67;;;;;29.17;44.54;101643.09;5063049;27;45459;-71
2023/08/23 08:32:13;;;;;;;;;4.00;4.00;;;;;29.22;44.04;101654.31;5060397;27;45964;-71
2023/08/23 08:34:39;;;;;;;;;4.67;3.67;;;;;29.28;44.69;101647.25;5061071;28;57699;-72
2023/08/23 08:37:06;;;;;;;;;4.00;4.00;;;;;29.36;44.79;101652.66;5062140;28;45449;-73
2023/08/23 08:39:31;;;;;;;;;2.33;2.33;;;;;29.44;44.74;101646.25;5056367;28;45482;-73
2023/08/23 08:41:57;;;;;;;;;3.67;3.00;;;;;29.52;44.84;101653.53;5064908;27;45406;-72
2023/08/23 08:44:23;;;;;;;;;5.67;4.00;;;;;29.61;44.95;101654.28;5066234;27;46342;-71
2023/08/23 08:46:48;;;;;;;;;5.00;5.00;;;;;29.70;44.52;101659.50;5062866;28;45846;-71
2023/08/23 08:49:14;;;;;;;;;4.33;4.33;;;;;29.76;44.79;101660.63;5062194;28;45871;-71
2023/08/23 08:51:42;;;;;;;;;5.00;5.00;;;;;29.85;44.85;101658.63;5064402;27;45494;-72
2023/08/23 08:54:09;;;;;;;;;3.67;3.00;;;;;29.91;44.34;101657.88;5067824;28;47237;-73
2023/08/23 08:56:35;;;;;;;;;5.67;5.67;;;;;29.98;44.41;101661.56;5063061;27;45514;-73
2023/08/23 08:59:01;;;;;;;;;6.00;5.00;;;;;30.04;44.60;101654.44;5064758;28;45435;-73
2023/08/23 09:01:32;;;;;;;;;4.00;4.00;;;;;30.11;45.01;101646.34;5073350;27;45508;-73
2023/08/23 09:03:57;;;;;;;;;5.00;5.00;;;;;30.16;44.97;101651.28;5079710;27;46603;-72
2023/08/23 09:06:24;;;;;;;;;2.33;2.33;;;;;30.20;44.51;101658.91;5068397;27;45631;-74
2023/08/23 09:08:49;;;;;;;;;5.00;4.00;;;;;30.25;44.80;101652.84;5064812;28;45719;-73
2023/08/23 09:11:15;;;;;;;;;4.67;4.00;;;;;30.30;44.91;101655.88;5069448;27;45684;-74
2023/08/23 09:13:40;;;;;;;;;4.33;4.33;;;;;30.35;44.89;101656.13;5066270;28;50736;-74
2023/08/23 09:16:05;;;;;;;;;4.00;4.00;;;;;30.41;44.99;101657.25;5073028;28;45602;-74
2023/08/23 09:18:32;;;;;;;;;5.67;4.00;;;;;30.45;45.03;101657.72;5067626;27;45744;-73
2023/08/23 09:20:57;;;;;;;;;5.00;3.00;;;;;30.48;45.06;101658.16;5066522;28;45734;-73
2023/08/23 09:23:23;;;;;;;;;5.00;5.00;;;;;30.53;45.19;101660.31;5063046;27;66045;-72
2023/08/23 09:25:48;;;;;;;;;3.67;3.67;;;;;30.58;45.23;101648.78;5063330;27;45822;-73
2023/08/23 09:28:14;;;;;;;;;5.00;5.00;;;;;30.62;45.31;101644.63;5067940;28;45825;-71
2023/08/23 09:30:39;;;;;;;;;4.33;4.33;;;;;30.66;45.22;101642.31;5053478;28;45533;-73
2023/08/23 09:33:05;;;;;;;;;3.33;3.33;;;;;30.71;45.36;101648.09;5060259;28;49385;-73
2023/08/23 09:35:30;;;;;;;;;5.33;3.33;;;;;30.73;45.20;101648.75;5072273;27;45626;-75
2023/08/23 09:37:56;;;;;;;;;3.67;3.67;;;;;30.77;45.43;101653.63;5061775;28;45421;-75
2023/08/23 09:40:28;;;;;;;;;4.00;4.00;;;;;30.81;45.25;101653.25;5061146;27;45497;-74
2023/08/23 09:42:54;;;;;;;;;3.33;3.33;;;;;30.84;44.95;101652.84;5063478;28;46161;-74
2023/08/23 09:45:21;;;;;;;;;4.33;4.33;;;;;30.87;45.41;101655.19;5058878;28;45502;-73
2023/08/23 09:47:59;;;;;;;;;6.33;5.00;;;;;30.89;45.31;101653.97;5068754;28;45512;-74
2023/08/23 09:50:25;;;;;;;;;5.33;5.33;;;;;30.92;45.41;101658.19;5069680;27;45451;-73
2023/08/23 09:52:59;;;;;;;;;5.00;5.00;;;;;30.95;45.43;101657.81;5068995;28;45453;-75
2023/08/23 09:55:25;;;;;;;;;5.00;5.00;;;;;30.97;45.42;101655.72;5070093;28;45483;-73
2023/08/23 09:57:53;;;;;;;;;4.67;4.67;;;;;31.01;45.36;101653.41;5068748;27;45348;-76
2023/08/23 10:00:18;;;;;;;;;6.00;5.00;;;;;31.02;45.33;101645.00;5068255;27;45645;-74
2023/08/23 10:02:46;;;;;;;;;5.33;5.00;;;;;31.05;45.03;101642.91;5057514;28;47014;-76
2023/08/23 10:05:12;;;;;;;;;6.00;5.00;;;;;31.05;43.82;101632.78;5068506;27;45724;-75
2023/08/23 10:07:40;;;;;;;;;4.00;4.00;;;;;31.05;43.63;101637.44;5067890;28;45690;-75
2023/08/23 10:10:06;;;;;;;;;6.00;5.00;;;;;31.03;43.44;101632.16;5066095;28;45470;-73
2023/08/23 10:12:34;;;;;;;;;7.00;5.33;;;;;31.01;43.12;101624.13;5070496;28;46164;-72
2023/08/23 10:15:02;;;;;;;;;6.67;6.67;;;;;30.98;42.94;101618.19;5068530;28;45646;-72
2023/08/23 10:17:30;;;;;;;;;1.33;1.33;;;;;30.98;42.93;101618.19;5070469;27;45922;-72
2023/08/23 10:19:56;;;;;;;;;6.67;6.00;;;;;30.96;43.00;101621.13;5072386;27;45873;-72
2023/08/23 10:22:23;;;;;;;;;8.00;6.67;;;;;30.95;42.80;101624.06;5071355;28;46164;-72
2023/08/23 10:24:50;;;;;;;;;6.00;5.33;;;;;30.94;42.83;101611.41;5063636;27;45473;-71
2023/08/23 10:27:16;;;;;;;;;6.33;6.00;;;;;30.92;42.99;101602.53;5070343;28;45581;-74
2023/08/23 10:29:41;;;;;;;;;5.33;5.33;;;;;30.92;42.77;101600.66;5068945;27;45494;-72
2023/08/23 10:32:08;;;;;;;;;7.33;5.67;;;;;30.90;42.83;101584.41;5071779;27;45709;-73
2023/08/23 10:34:39;;;;;;;;;5.33;5.33;;;;;30.90;42.67;101586.31;5062683;27;45697;-72
2023/08/23 10:37:18;;;;;;;;;7.00;7.00;;;;;30.87;42.86;101584.81;5063797;28;47362;-72
2023/08/23 10:39:54;;;;;;;;;5.00;5.00;;;;;30.86;42.81;101593.22;5064173;28;45603;-72
2023/08/23 10:42:21;;;;;;;;;7.00;7.00;;;;;30.84;43.03;101587.94;5065436;28;47043;-72
2023/08/23 10:44:54;;;;;;;;;7.33;3.33;;;;;30.81;42.96;101571.88;5063415;28;45668;-72
2023/08/23 10:47:19;;;;;;;;;6.00;5.00;;;;;30.79;42.64;101573.13;5063589;27;45439;-72
2023/08/23 10:49:48;;;;;;;;;5.33;5.00;;;;;30.77;43.11;101581.53;5063374;27;45763;-72
2023/08/23 10:52:14;;;;;;;;;5.00;5.00;;;;;30.76;43.00;101588.06;5063011;27;46259;-71
2023/08/23 10:54:40;;;;;;;;;3.00;3.00;;;;;30.76;43.21;101605.38;5065519;28;45542;-72
2023/08/23 10:57:06;;;;;;;;;4.00;4.00;;;;;30.74;43.25;101601.97;5057866;27;45488;-72
2023/08/23 10:59:31;;;;;;;;;5.33;4.00;;;;;30.74;43.06;101595.66;5058615;27;45513;-71
2023/08/23 11:01:57;;;;;;;;;3.00;3.00;;;;;30.73;43.35;101592.06;5057330;27;45704;-71
2023/08/23 11:04:23;;;;;;;;;5.00;3.00;;;;;30.72;43.23;101600.47;5058591;27;45592;-73
2023/08/23 11:06:50;;;;;;;;;3.00;3.00;;;;;30.71;43.22;101590.56;5060433;27;45378;-71
2023/08/23 11:09:16;;;;;;;;;5.33;5.33;;;;;30.70;43.18;101591.56;5062177;27;45665;-71
2023/08/23 11:11:42;;;;;;;;;4.00;3.33;;;;;30.66;43.22;101588.41;5065080;27;47040;-72
2023/08/23 11:14:07;;;;;;;;;4.00;4.00;;;;;30.64;43.31;101583.09;5066994;27;45580;-70
2023/08/23 11:16:33;;;;;;;;;6.33;6.33;;;;;30.63;43.59;101578.69;5064485;27;45521;-71
2023/08/23 11:19:01;;;;;;;;;6.67;6.67;;;;;30.61;43.55;101574.44;5064458;28;45526;-70
2023/08/23 11:21:26;;;;;;;;;7.67;6.00;;;;;30.61;43.89;101578.00;5071420;28;45693;-70
2023/08/23 11:23:51;;;;;;;;;4.00;4.00;;;;;30.62;43.85;101560.53;5071663;27;45733;-70
2023/08/23 11:26:17;;;;;;;;;8.33;5.33;;;;;30.64;43.50;101572.16;5073519;27;57195;-71
2023/08/23 11:28:42;;;;;;;;;7.67;6.67;;;;;30.66;43.79;101562.88;5061338;28;52921;-71
2023/08/23 11:31:08;;;;;;;;;4.67;4.67;;;;;30.59;44.10;101554.59;5076061;27;48370;-72
2023/08/23 11:33:35;;;;;;;;;7.00;5.67;;;;;30.52;44.23;101553.72;5066160;27;45626;-73
2023/08/23 11:36:04;;;;;;;;;4.00;4.00;;;;;30.46;44.18;101552.59;5070171;27;45604;-73
2023/08/23 11:38:30;;;;;;;;;5.00;4.33;;;;;30.37;44.31;101552.72;5063378;28;45408;-73
2023/08/23 11:40:57;;;;;;;;;4.33;4.33;;;;;30.29;44.66;101538.31;5065466;27;45920;-73
2023/08/23 11:43:26;;;;;;;;;5.67;5.33;;;;;30.23;44.52;101535.31;5068417;28;45408;-73
2023/08/23 11:45:53;;;;;;;;;3.67;3.67;;;;;30.17;44.37;101532.50;5056812;28;45618;-74
2023/08/23 11:48:20;;;;;;;;;6.00;4.67;;;;;30.11;44.37;101526.78;5062864;27;46876;-73
2023/08/23 11:50:45;;;;;;;;;5.00;3.67;;;;;30.08;44.67;101531.78;5066686;27;45638;-73
2023/08/23 11:53:12;;;;;;;;;4.00;4.00;;;;;30.04;44.92;101527.72;5060446;27;45604;-72
2023/08/23 11:55:37;;;;;;;;;5.67;5.00;;;;;30.00;44.76;101523.69;5058984;28;45434;-73
2023/08/23 11:58:03;;;;;;;;;6.67;6.67;;;;;29.94;44.82;101526.16;5068276;27;45617;-73
2023/08/23 12:00:28;;;;;;;;;4.67;4.67;;;;;29.91;44.87;101518.31;5068072;27;45451;-73
2023/08/23 12:02:53;;;;;;;;;6.33;4.33;;;;;29.88;45.00;101529.66;5073369;27;45441;-74
2023/08/23 12:05:19;;;;;;;;;6.33;5.67;;;;;29.85;45.16;101530.03;5070988;27;45578;-73
2023/08/23 12:07:48;;;;;;;;;5.67;5.67;;;;;29.82;44.95;101528.53;5065226;27;45480;-73
2023/08/23 12:10:14;;;;;;;;;6.00;6.00;;;;;29.81;44.93;101517.78;5056498;27;45420;-73
2023/08/23 12:12:39;;;;;;;;;4.00;4.00;;;;;29.81;44.92;101515.03;5064197;27;45501;-73
2023/08/23 12:15:06;;;;;;;;;4.67;4.67;;;;;29.80;44.81;101511.44;5062979;28;45449;-74
2023/08/23 12:17:32;;;;;;;;;5.33;5.33;;;;;29.78;45.05;101504.47;5057010;28;45893;-73
2023/08/23 12:19:58;;;;;;;;;4.33;4.33;;;;;29.77;45.21;101498.19;5060317;28;47253;-73
2023/08/23 12:22:23;;;;;;;;;7.00;7.00;;;;;29.78;45.56;101499.88;5069678;27;45320;-75
2023/08/23 12:24:49;;;;;;;;;6.33;5.00;;;;;29.77;46.34;101498.19;5064854;27;45384;-75
2023/08/23 12:27:14;;;;;;;;;6.67;5.00;;;;;29.76;45.99;101484.69;5059246;27;45648;-74
2023/08/23 12:29:41;;;;;;;;;5.00;4.67;;;;;29.76;46.49;101501.09;5059333;28;65345;-75
2023/08/23 12:32:07;;;;;;;;;7.33;5.67;;;;;29.78;46.29;101494.41;5067390;28;45806;-72
2023/08/23 12:34:32;;;;;;;;;4.67;4.67;;;;;29.79;46.36;101487.88;5071881;27;45367;-74
2023/08/23 12:36:57;;;;;;;;;7.33;4.00;;;;;29.82;46.73;101486.63;5056075;28;45475;-73
2023/08/23 12:39:23;;;;;;;;;6.00;6.00;;;;;29.87;46.39;101483.34;5068182;27;46267;-73
2023/08/23 12:41:48;;;;;;;;;6.00;5.67;;;;;29.90;47.14;101480.19;5061119;27;45600;-73
2023/08/23 12:44:14;;;;;;;;;5.00;5.00;;;;;29.92;47.11;101480.88;5062729;28;45411;-73
2023/08/23 12:46:39;;;;;;;;;4.00;4.00;;;;;29.95;46.08;101477.72;5070869;27;45652;-74
2023/08/23 12:49:07;;;;;;;;;4.33;4.33;;;;;29.98;46.52;101480.06;5064412;27;47089;-72
2023/08/23 12:51:34;;;;;;;;;5.67;4.00;;;;;29.98;46.41;101489.16;5061838;27;45491;-71
2023/08/23 12:53:59;;;;;;;;;4.67;4.67;;;;;30.00;46.01;101482.63;5069598;28;46068;-73
2023/08/23 12:56:24;;;;;;;;;5.00;5.00;;;;;30.01;46.38;101478.84;5061451;27;45433;-71
2023/08/23 12:58:50;;;;;;;;;9.00;6.00;;;;;30.01;46.42;101474.22;5058671;27;54231;-71
2023/08/23 13:01:15;;;;;;;;;5.33;5.33;;;;;30.04;46.26;101467.50;5058511;28;56029;-74
2023/08/23 13:03:40;;;;;;;;;4.00;3.33;;;;;30.03;46.21;101469.38;5065715;28;45487;-73
2023/08/23 13:06:06;;;;;;;;;7.00;4.00;;;;;30.05;46.22;101461.00;5069873;27;45702;-74
2023/08/23 13:08:31;;;;;;;;;4.33;4.33;;;;;30.00;46.14;101458.00;5056596;28;46706;-74
2023/08/23 13:10:56;;;;;;;;;7.00;7.00;;;;;29.95;46.36;101462.16;5060933;27;45478;-74
2023/08/23 13:13:22;;;;;;;;;5.00;4.67;;;;;29.94;46.20;101457.72;5056887;28;45886;-72
2023/08/23 13:15:47;;;;;;;;;5.00;4.00;;;;;29.95;46.38;101466.78;5066639;27;45452;-72
2023/08/23 13:18:12;;;;;;;;;5.00;3.67;;;;;29.96;46.36;101452.91;5058535;28;63047;-74
2023/08/23 13:20:38;;;;;;;;;5.00;5.00;;;;;30.00;46.37;101452.53;5059677;27;45661;-72
2023/08/23 13:23:03;;;;;;;;;5.00;4.00;;;;;30.03;46.34;101454.88;5063321;28;45787;-73
2023/08/23 13:25:29;;;;;;;;;3.33;3.33;;;;;30.06;46.38;101446.25;5068503;28;45592;-74
2023/08/23 13:27:55;;;;;;;;;4.33;3.67;;;;;30.07;46.18;101450.69;5064915;28;47611;-73
2023/08/23 13:30:20;;;;;;;;;5.33;4.67;;;;;30.07;46.30;101457.00;5064471;27;45556;-75
2023/08/23 13:32:45;;;;;;;;;5.33;5.33;;;;;30.06;46.39;101462.69;5070198;28;45408;-72
2023/08/23 13:35:12;;;;;;;;;4.00;4.00;;;;;30.07;46.31;101467.09;5058385;27;45622;-73
2023/08/23 13:37:37;;;;;;;;;5.00;5.00;;;;;30.07;46.39;101470.69;5053021;28;46102;-72
2023/08/23 13:40:06;;;;;;;;;5.67;4.00;;;;;30.10;46.28;101467.56;5068293;28;52123;-74
2023/08/23 13:42:32;;;;;;;;;5.00;5.00;;;;;30.13;45.96;101466.38;5071116;27;45816;-71
2023/08/23 13:44:57;;;;;;;;;4.67;4.67;;;;;30.10;46.02;101461.25;5068404;28;45560;-70
2023/08/23 13:47:22;;;;;;;;;3.00;3.00;;;;;30.13;46.07;101462.78;5055721;28;54200;-73
2023/08/23 13:49:47;;;;;;;;;3.33;3.33;;;;;30.15;45.93;101460.69;5068185;28;57071;-73
2023/08/23 13:52:14;;;;;;;;;4.00;4.00;;;;;30.17;45.81;101459.47;5056172;28;47416;-73
2023/08/23 13:54:40;;;;;;;;;3.67;3.67;;;;;30.20;45.93;101455.47;5069576;27;45471;-73
2023/08/23 13:57:05;;;;;;;;;5.67;5.67;;;;;30.20;46.12;101452.75;5064383;28;46417;-72
2023/08/23 13:59:30;;;;;;;;;5.67;5.67;;;;;30.20;45.73;101453.56;5067589;27;45395;-73
2023/08/23 14:01:56;;;;;;;;;3.33;3.00;;;;;30.20;45.84;101452.75;5072050;28;45457;-74
2023/08/23 14:04:23;;;;;;;;;6.33;4.67;;;;;30.19;45.65;101449.16;5073530;27;53283;-73
2023/08/23 14:06:49;;;;;;;;;5.33;4.00;;;;;30.18;45.40;101441.13;5065867;28;46078;-72
2023/08/23 14:09:14;;;;;;;;;7.33;5.67;;;;;30.16;45.71;101443.22;5065756;27;45550;-74
2023/08/23 14:11:39;;;;;;;;;6.00;5.33;;;;;30.13;45.67;101438.13;5069739;27;45583;-73
2023/08/23 14:14:04;;;;;;;;;6.00;4.67;;;;;30.10;45.96;101434.72;5065717;27;45402;-73
2023/08/23 14:16:30;;;;;;;;;4.00;4.00;;;;;30.09;45.96;101433.00;5074690;28;62234;-73
2023/08/23 14:18:55;;;;;;;;;5.00;5.00;;;;;30.09;45.91;101430.28;5064564;27;45457;-73
2023/08/23 14:21:20;;;;;;;;;3.67;3.33;;;;;30.10;45.98;101426.53;5071809;28;50227;-72
2023/08/23 14:23:46;;;;;;;;;4.67;4.00;;;;;30.09;45.78;101413.03;5073239;28;45560;-73
2023/08/23 14:26:11;;;;;;;;;4.67;3.67;;;;;30.08;46.02;101406.69;5088943;27;60122;-73
2023/08/23 14:28:36;;;;;;;;;4.00;4.00;;;;;30.10;46.06;101411.97;5069493;27;45480;-72
2023/08/23 14:31:04;;;;;;;;;3.33;3.33;;;;;30.10;45.98;101404.63;5074982;27;46445;-73
2023/08/23 14:33:30;;;;;;;;;4.00;4.00;;;;;30.13;46.13;101411.63;5069764;27;46419;-73
2023/08/23 14:35:55;;;;;;;;;5.00;4.00;;;;;30.14;46.23;101410.56;5072786;28;47086;-73
2023/08/23 14:38:21;;;;;;;;;4.00;4.00;;;;;30.16;46.07;101411.22;5073691;27;45567;-72
2023/08/23 14:40:46;;;;;;;;;3.00;3.00;;;;;30.16;46.06;101397.53;5073061;27;45484;-72
2023/08/23 14:43:11;;;;;;;;;4.33;4.33;;;;;30.16;46.40;101393.97;5067617;28;45494;-72
2023/08/23 14:45:37;;;;;;;;;3.33;3.33;;;;;30.11;46.50;101403.59;5067477;27;46344;-72
2023/08/23 14:48:03;;;;;;;;;4.00;4.00;;;;;30.11;46.18;101392.66;5069955;28;45529;-74
2023/08/23 14:50:29;;;;;;;;;3.67;3.67;;;;;30.11;45.97;101378.97;5074720;28;45323;-72
2023/08/23 14:52:54;;;;;;;;;3.33;3.33;;;;;30.14;46.12;101376.88;5071697;27;45513;-72
2023/08/23 14:55:19;;;;;;;;;7.00;4.00;;;;;30.15;46.00;101384.06;5065717;28;51493;-72
2023/08/23 14:57:45;;;;;;;;;6.67;4.00;;;;;30.16;46.11;101381.09;5072568;27;45741;-72
2023/08/23 15:00:11;;;;;;;;;6.33;4.00;;;;;30.16;45.86;101375.63;5064606;27;45477;-73
2023/08/23 15:02:37;;;;;;;;;5.00;5.00;;;;;30.15;45.95;101384.88;5073085;27;45355;-73
2023/08/23 15:05:02;;;;;;;;;5.00;5.00;;;;;30.15;46.22;101384.06;5065467;27;45997;-74
2023/08/23 15:07:28;;;;;;;;;4.00;4.00;;;;;30.12;45.94;101393.50;5073350;28;45670;-74
2023/08/23 15:09:53;;;;;;;;;3.00;3.00;;;;;30.11;46.23;101387.19;5073853;27;45470;-74
2023/08/23 15:12:19;;;;;;;;;3.67;3.67;;;;;30.11;46.16;101389.06;5073272;28;45730;-74
2023/08/23 15:14:45;;;;;;;;;5.33;4.00;;;;;30.12;46.27;101393.50;5072320;27;46117;-74
2023/08/23 15:17:10;;;;;;;;;5.00;4.00;;;;;30.13;46.36;101391.59;5069177;28;45395;-75
2023/08/23 15:19:36;;;;;;;;;4.00;4.00;;;;;30.17;46.01;101392.91;5073468;27;45443;-74
2023/08/23 15:22:02;;;;;;;;;4.67;4.67;;;;;30.16;46.26;101392.03;5062685;27;45560;-75
2023/08/23 15:24:29;;;;;;;;;5.00;4.33;;;;;30.17;46.27;101390.16;5062364;28;46049;-75
2023/08/23 15:26:54;;;;;;;;;5.00;5.00;;;;;30.17;46.20;101381.97;5070534;28;45435;-74
2023/08/23 15:29:20;;;;;;;;;3.33;3.33;;;;;30.18;45.90;101389.97;5070485;27;45560;-75
2023/08/23 15:31:45;;;;;;;;;4.33;4.33;;;;;30.19;46.26;101379.84;5069940;27;45448;-73
2023/08/23 15:34:10;;;;;;;;;3.00;3.00;;;;;30.20;46.03;101381.56;5070316;27;46279;-74
2023/08/23 15:36:36;;;;;;;;;3.33;3.33;;;;;30.21;46.46;101373.13;5073268;27;45579;-75
2023/08/23 15:39:02;;;;;;;;;6.33;3.67;;;;;30.21;46.13;101375.88;5070162;27;45772;-75
2023/08/23 15:41:28;;;;;;;;;5.00;5.00;;;;;30.18;46.42;101369.94;5066968;28;45490;-76
2023/08/23 15:43:54;;;;;;;;;4.67;4.67;;;;;30.14;46.20;101383.19;5068206;27;45981;-75
2023/08/23 15:46:19;;;;;;;;;4.33;4.00;;;;;30.13;46.29;101387.00;5069080;27;45384;-76
2023/08/23 15:48:44;;;;;;;;;3.67;3.67;;;;;30.13;46.31;101380.66;5065559;27;45529;-75
2023/08/23 15:51:10;;;;;;;;;5.33;4.33;;;;;30.11;46.05;101378.13;5070779;27;45565;-74
2023/08/23 15:53:35;;;;;;;;;4.00;4.00;;;;;30.11;46.21;101378.13;5067292;27;50330;-77
2023/08/23 15:56:02;;;;;;;;;5.67;5.33;;;;;30.11;46.40;101383.59;5068562;28;45444;-73
2023/08/23 15:58:28;;;;;;;;;2.67;2.67;;;;;30.12;46.38;101388.03;5074214;28;45486;-73
2023/08/23 16:00:54;;;;;;;;;2.67;2.67;;;;;30.11;46.05;101372.63;5072336;27;45499;-75
2023/08/23 16:03:20;;;;;;;;;5.00;3.67;;;;;30.11;46.21;101372.63;5070027;28;45390;-73
2023/08/23 16:05:54;;;;;;;;;3.00;3.00;;;;;30.10;46.41;101366.31;5072203;27;45584;-73
2023/08/23 16:08:20;;;;;;;;;5.33;5.33;;;;;30.11;46.37;101356.22;5067005;27;46079;-75
2023/08/23 16:10:45;;;;;;;;;4.00;4.00;;;;;30.11;46.40;101359.81;5065302;27;45473;-75
2023/08/23 16:13:11;;;;;;;;;7.00;4.33;;;;;30.14;46.33;101385.09;5071812;27;46907;-74
2023/08/23 16:15:36;;;;;;;;;6.00;4.67;;;;;30.17;46.51;101384.69;5067333;27;52290;-75
2023/08/23 16:18:01;;;;;;;;;5.00;5.00;;;;;30.19;46.32;101377.13;5068018;28;45527;-74
2023/08/23 16:20:27;;;;;;;;;4.00;4.00;;;;;30.21;46.17;101372.31;5068859;27;45428;-74
2023/08/23 16:22:52;;;;;;;;;4.00;4.00;;;;;30.21;46.31;101362.19;5069749;27;45565;-75
2023/08/23 16:25:18;;;;;;;;;7.00;5.33;;;;;30.22;46.17;101360.31;5068501;27;45700;-74
2023/08/23 16:27:43;;;;;;;;;4.00;4.00;;;;;30.22;46.45;101376.72;5067233;27;45398;-75
2023/08/23 16:30:09;;;;;;;;;4.67;4.67;;;;;30.19;46.30;101375.25;5068311;28;45586;-74
2023/08/23 16:32:35;;;;;;;;;5.00;5.00;;;;;30.21;46.48;101364.09;5071060;27;47086;-74
2023/08/23 16:35:00;;;;;;;;;5.33;5.33;;;;;30.21;46.24;101364.91;5072854;28;46013;-74
2023/08/23 16:37:25;;;;;;;;;3.67;3.67;;;;;30.23;46.43;101362.84;5072593;27;45504;-74